sensor_id;sensor_type;location;lat;lon;timestamp;P1;durP1;ratioP1;P2;durP2;ratioP2
18172;SDS011;9211;48.818;9.312;2023-06-10T00:01:52;11.57;;;8.02;;
18172;SDS011;9211;48.818;9.312;2023-06-10T00:04:20;11.90;;;8.05;;
18172;SDS011;9211;48.818;9.312;2023-06-10T00:06:47;11.68;;;7.72;;
18172;SDS011;9211;48.818;9.312;2023-06-10T00:09:14;10.60;;;7.75;;
18172;SDS011;9211;48.818;9.312;2023-06-10T00:11:43;10.88;;;8.18;;
18172;SDS011;9211;48.818;9.312;2023-06-10T00:14:12;10.45;;;7.97;;
18172;SDS011;9211;48.818;9.312;2023-06-10T00:16:39;13.27;;;8.53;;
18172;SDS011;9211;48.818;9.312;2023-06-10T00:19:06;12.23;;;8.43;;
18172;SDS011;9211;48.818;9.312;2023-06-10T00:21:33;10.70;;;8.30;;
18172;SDS011;9211;48.818;9.312;2023-06-10T00:24:05;9.95;;;7.97;;
18172;SDS011;9211;48.818;9.312;2023-06-10T00:26:37;11.90;;;8.32;;
18172;SDS011;9211;48.818;9.312;2023-06-10T00:29:04;11.03;;;8.30;;
18172;SDS011;9211;48.818;9.312;2023-06-10T00:31:33;12.20;;;8.45;;
18172;SDS011;9211;48.818;9.312;2023-06-10T00:34:00;12.50;;;8.52;;
18172;SDS011;9211;48.818;9.312;2023-06-10T00:36:28;11.32;;;8.25;;
18172;SDS011;9211;48.818;9.312;2023-06-10T00:38:55;11.77;;;8.30;;
18172;SDS011;9211;48.818;9.312;2023-06-10T00:41:22;10.80;;;7.88;;
18172;SDS011;9211;48.818;9.312;2023-06-10T00:43:49;11.20;;;8.37;;
18172;SDS011;9211;48.818;9.312;2023-06-10T00:46:16;12.20;;;7.88;;
18172;SDS011;9211;48.818;9.312;2023-06-10T00:48:45;11.50;;;8.15;;
18172;SDS011;9211;48.818;9.312;2023-06-10T00:51:12;11.07;;;8.10;;
18172;SDS011;9211;48.818;9.312;2023-06-10T00:53:41;10.38;;;8.23;;
18172;SDS011;9211;48.818;9.312;2023-06-10T00:56:08;11.10;;;8.15;;
18172;SDS011;9211;48.818;9.312;2023-06-10T00:58:35;11.67;;;8.30;;
18172;SDS011;9211;48.818;9.312;2023-06-10T01:01:03;11.52;;;8.00;;
18172;SDS011;9211;48.818;9.312;2023-06-10T01:03:30;11.90;;;7.90;;
18172;SDS011;9211;48.818;9.312;2023-06-10T01:06:06;12.38;;;8.10;;
18172;SDS011;9211;48.818;9.312;2023-06-10T01:08:45;13.07;;;8.07;;
18172;SDS011;9211;48.818;9.312;2023-06-10T01:11:23;10.07;;;8.40;;
18172;SDS011;9211;48.818;9.312;2023-06-10T01:13:54;10.80;;;7.65;;
18172;SDS011;9211;48.818;9.312;2023-06-10T01:16:24;12.85;;;8.00;;
18172;SDS011;9211;48.818;9.312;2023-06-10T01:18:51;12.30;;;7.68;;
18172;SDS011;9211;48.818;9.312;2023-06-10T01:21:21;10.43;;;8.00;;
18172;SDS011;9211;48.818;9.312;2023-06-10T01:23:50;12.27;;;8.02;;
18172;SDS011;9211;48.818;9.312;2023-06-10T01:26:17;11.18;;;8.07;;
18172;SDS011;9211;48.818;9.312;2023-06-10T01:28:52;9.15;;;7.30;;
18172;SDS011;9211;48.818;9.312;2023-06-10T01:31:31;12.30;;;8.20;;
18172;SDS011;9211;48.818;9.312;2023-06-10T01:34:03;13.47;;;8.10;;
18172;SDS011;9211;48.818;9.312;2023-06-10T01:36:35;10.60;;;7.63;;
18172;SDS011;9211;48.818;9.312;2023-06-10T01:39:04;10.70;;;8.07;;
18172;SDS011;9211;48.818;9.312;2023-06-10T01:41:31;12.00;;;8.20;;
18172;SDS011;9211;48.818;9.312;2023-06-10T01:43:59;14.07;;;8.40;;
18172;SDS011;9211;48.818;9.312;2023-06-10T01:46:26;13.88;;;7.80;;
18172;SDS011;9211;48.818;9.312;2023-06-10T01:48:53;12.30;;;8.13;;
18172;SDS011;9211;48.818;9.312;2023-06-10T01:51:20;11.77;;;8.77;;
18172;SDS011;9211;48.818;9.312;2023-06-10T01:53:48;12.87;;;8.30;;
18172;SDS011;9211;48.818;9.312;2023-06-10T01:56:15;10.40;;;8.38;;
18172;SDS011;9211;48.818;9.312;2023-06-10T01:58:45;12.65;;;8.50;;
18172;SDS011;9211;48.818;9.312;2023-06-10T02:01:12;11.37;;;8.20;;
18172;SDS011;9211;48.818;9.312;2023-06-10T02:03:39;10.43;;;7.90;;
18172;SDS011;9211;48.818;9.312;2023-06-10T02:06:07;10.90;;;8.27;;
18172;SDS011;9211;48.818;9.312;2023-06-10T02:08:34;12.48;;;8.07;;
18172;SDS011;9211;48.818;9.312;2023-06-10T02:11:03;10.32;;;7.53;;
18172;SDS011;9211;48.818;9.312;2023-06-10T02:13:30;10.82;;;8.32;;
18172;SDS011;9211;48.818;9.312;2023-06-10T02:15:57;11.18;;;7.90;;
18172;SDS011;9211;48.818;9.312;2023-06-10T02:18:28;12.00;;;8.00;;
18172;SDS011;9211;48.818;9.312;2023-06-10T02:20:55;11.17;;;7.83;;
18172;SDS011;9211;48.818;9.312;2023-06-10T02:23:22;11.65;;;7.95;;
18172;SDS011;9211;48.818;9.312;2023-06-10T02:25:49;10.40;;;7.85;;
18172;SDS011;9211;48.818;9.312;2023-06-10T02:28:18;12.30;;;7.70;;
18172;SDS011;9211;48.818;9.312;2023-06-10T02:30:45;10.10;;;7.70;;
18172;SDS011;9211;48.818;9.312;2023-06-10T02:33:13;11.65;;;7.70;;
18172;SDS011;9211;48.818;9.312;2023-06-10T02:35:40;9.57;;;7.50;;
18172;SDS011;9211;48.818;9.312;2023-06-10T02:38:07;13.02;;;7.80;;
18172;SDS011;9211;48.818;9.312;2023-06-10T02:40:35;11.07;;;8.07;;
18172;SDS011;9211;48.818;9.312;2023-06-10T02:43:02;11.80;;;8.00;;
18172;SDS011;9211;48.818;9.312;2023-06-10T02:45:31;11.98;;;7.60;;
18172;SDS011;9211;48.818;9.312;2023-06-10T02:48:00;10.48;;;7.82;;
18172;SDS011;9211;48.818;9.312;2023-06-10T02:50:28;11.98;;;7.90;;
18172;SDS011;9211;48.818;9.312;2023-06-10T02:53:04;11.23;;;7.73;;
18172;SDS011;9211;48.818;9.312;2023-06-10T02:55:32;10.02;;;7.55;;
18172;SDS011;9211;48.818;9.312;2023-06-10T02:58:03;9.50;;;7.60;;
18172;SDS011;9211;48.818;9.312;2023-06-10T03:00:32;11.47;;;8.10;;
18172;SDS011;9211;48.818;9.312;2023-06-10T03:02:59;11.27;;;7.95;;
18172;SDS011;9211;48.818;9.312;2023-06-10T03:05:33;11.07;;;7.53;;
18172;SDS011;9211;48.818;9.312;2023-06-10T03:08:03;9.93;;;7.65;;
18172;SDS011;9211;48.818;9.312;2023-06-10T03:10:32;9.70;;;7.18;;
18172;SDS011;9211;48.818;9.312;2023-06-10T03:13:01;10.70;;;7.60;;
18172;SDS011;9211;48.818;9.312;2023-06-10T03:15:28;10.85;;;7.63;;
18172;SDS011;9211;48.818;9.312;2023-06-10T03:18:02;11.85;;;7.57;;
18172;SDS011;9211;48.818;9.312;2023-06-10T03:20:29;9.18;;;7.03;;
18172;SDS011;9211;48.818;9.312;2023-06-10T03:22:56;10.45;;;7.25;;
18172;SDS011;9211;48.818;9.312;2023-06-10T03:25:23;11.30;;;7.28;;
18172;SDS011;9211;48.818;9.312;2023-06-10T03:27:52;10.38;;;7.25;;
18172;SDS011;9211;48.818;9.312;2023-06-10T03:30:19;11.80;;;6.85;;
18172;SDS011;9211;48.818;9.312;2023-06-10T03:32:46;13.00;;;7.27;;
18172;SDS011;9211;48.818;9.312;2023-06-10T03:35:17;9.93;;;7.03;;
18172;SDS011;9211;48.818;9.312;2023-06-10T03:37:45;8.18;;;6.68;;
18172;SDS011;9211;48.818;9.312;2023-06-10T03:40:12;11.52;;;6.97;;
18172;SDS011;9211;48.818;9.312;2023-06-10T03:42:43;9.00;;;6.85;;
18172;SDS011;9211;48.818;9.312;2023-06-10T03:45:12;9.25;;;7.03;;
18172;SDS011;9211;48.818;9.312;2023-06-10T03:47:39;10.98;;;7.07;;
18172;SDS011;9211;48.818;9.312;2023-06-10T03:50:10;10.40;;;7.60;;
18172;SDS011;9211;48.818;9.312;2023-06-10T03:52:40;9.68;;;7.03;;
18172;SDS011;9211;48.818;9.312;2023-06-10T03:55:09;11.68;;;7.25;;
18172;SDS011;9211;48.818;9.312;2023-06-10T03:57:41;10.25;;;7.00;;
18172;SDS011;9211;48.818;9.312;2023-06-10T04:00:08;9.23;;;7.00;;
18172;SDS011;9211;48.818;9.312;2023-06-10T04:02:40;9.87;;;7.20;;
18172;SDS011;9211;48.818;9.312;2023-06-10T04:05:11;10.23;;;6.85;;
18172;SDS011;9211;48.818;9.312;2023-06-10T04:07:40;10.93;;;7.00;;
18172;SDS011;9211;48.818;9.312;2023-06-10T04:10:09;10.70;;;7.10;;
18172;SDS011;9211;48.818;9.312;2023-06-10T04:12:37;11.13;;;7.00;;
18172;SDS011;9211;48.818;9.312;2023-06-10T04:15:04;11.13;;;6.93;;
18172;SDS011;9211;48.818;9.312;2023-06-10T04:17:32;9.85;;;7.18;;
18172;SDS011;9211;48.818;9.312;2023-06-10T04:20:00;11.10;;;7.07;;
18172;SDS011;9211;48.818;9.312;2023-06-10T04:22:28;11.55;;;7.20;;
18172;SDS011;9211;48.818;9.312;2023-06-10T04:24:56;11.10;;;7.10;;
18172;SDS011;9211;48.818;9.312;2023-06-10T04:27:24;10.38;;;7.30;;
18172;SDS011;9211;48.818;9.312;2023-06-10T04:29:51;9.45;;;7.20;;
18172;SDS011;9211;48.818;9.312;2023-06-10T04:32:19;10.15;;;7.20;;
18172;SDS011;9211;48.818;9.312;2023-06-10T04:34:47;10.65;;;7.90;;
18172;SDS011;9211;48.818;9.312;2023-06-10T04:37:17;11.43;;;7.80;;
18172;SDS011;9211;48.818;9.312;2023-06-10T04:39:44;10.13;;;7.30;;
18172;SDS011;9211;48.818;9.312;2023-06-10T04:42:12;11.95;;;7.70;;
18172;SDS011;9211;48.818;9.312;2023-06-10T04:44:40;11.13;;;7.53;;
18172;SDS011;9211;48.818;9.312;2023-06-10T04:47:08;11.20;;;7.40;;
18172;SDS011;9211;48.818;9.312;2023-06-10T04:49:35;10.15;;;7.90;;
18172;SDS011;9211;48.818;9.312;2023-06-10T04:52:02;9.98;;;7.28;;
18172;SDS011;9211;48.818;9.312;2023-06-10T04:54:34;10.38;;;7.85;;
18172;SDS011;9211;48.818;9.312;2023-06-10T04:57:01;12.60;;;7.82;;
18172;SDS011;9211;48.818;9.312;2023-06-10T04:59:29;11.15;;;8.02;;
18172;SDS011;9211;48.818;9.312;2023-06-10T05:01:56;10.63;;;7.75;;
18172;SDS011;9211;48.818;9.312;2023-06-10T05:04:24;12.23;;;7.70;;
18172;SDS011;9211;48.818;9.312;2023-06-10T05:06:51;11.70;;;7.47;;
18172;SDS011;9211;48.818;9.312;2023-06-10T05:09:18;10.83;;;8.03;;
18172;SDS011;9211;48.818;9.312;2023-06-10T05:11:45;11.50;;;8.30;;
18172;SDS011;9211;48.818;9.312;2023-06-10T05:14:12;9.43;;;7.57;;
18172;SDS011;9211;48.818;9.312;2023-06-10T05:16:42;9.80;;;7.60;;
18172;SDS011;9211;48.818;9.312;2023-06-10T05:19:09;10.70;;;8.10;;
18172;SDS011;9211;48.818;9.312;2023-06-10T05:21:36;10.80;;;8.03;;
18172;SDS011;9211;48.818;9.312;2023-06-10T05:24:04;11.90;;;7.70;;
18172;SDS011;9211;48.818;9.312;2023-06-10T05:26:31;11.45;;;7.82;;
18172;SDS011;9211;48.818;9.312;2023-06-10T05:28:58;11.80;;;7.45;;
18172;SDS011;9211;48.818;9.312;2023-06-10T05:31:25;9.05;;;7.40;;
18172;SDS011;9211;48.818;9.312;2023-06-10T05:33:53;10.15;;;6.88;;
18172;SDS011;9211;48.818;9.312;2023-06-10T05:36:20;10.50;;;7.03;;
18172;SDS011;9211;48.818;9.312;2023-06-10T05:38:50;13.50;;;6.60;;
18172;SDS011;9211;48.818;9.312;2023-06-10T05:41:17;8.20;;;6.40;;
18172;SDS011;9211;48.818;9.312;2023-06-10T05:43:44;9.93;;;6.40;;
18172;SDS011;9211;48.818;9.312;2023-06-10T05:46:11;7.85;;;5.82;;
18172;SDS011;9211;48.818;9.312;2023-06-10T05:48:38;6.72;;;5.40;;
18172;SDS011;9211;48.818;9.312;2023-06-10T05:51:06;8.20;;;5.68;;
18172;SDS011;9211;48.818;9.312;2023-06-10T05:53:33;7.90;;;5.45;;
18172;SDS011;9211;48.818;9.312;2023-06-10T05:56:00;8.80;;;5.30;;
18172;SDS011;9211;48.818;9.312;2023-06-10T05:58:27;6.25;;;5.07;;
18172;SDS011;9211;48.818;9.312;2023-06-10T06:00:54;6.47;;;5.28;;
18172;SDS011;9211;48.818;9.312;2023-06-10T06:03:21;6.03;;;5.03;;
18172;SDS011;9211;48.818;9.312;2023-06-10T06:05:48;6.30;;;5.00;;
18172;SDS011;9211;48.818;9.312;2023-06-10T06:08:16;7.20;;;5.07;;
18172;SDS011;9211;48.818;9.312;2023-06-10T06:10:44;7.03;;;5.47;;
18172;SDS011;9211;48.818;9.312;2023-06-10T06:13:11;6.68;;;5.20;;
18172;SDS011;9211;48.818;9.312;2023-06-10T06:15:38;6.57;;;5.40;;
18172;SDS011;9211;48.818;9.312;2023-06-10T06:18:05;6.68;;;5.40;;
18172;SDS011;9211;48.818;9.312;2023-06-10T06:20:32;7.22;;;5.53;;
18172;SDS011;9211;48.818;9.312;2023-06-10T06:22:59;6.20;;;5.00;;
18172;SDS011;9211;48.818;9.312;2023-06-10T06:25:27;7.38;;;5.13;;
18172;SDS011;9211;48.818;9.312;2023-06-10T06:27:54;6.73;;;5.40;;
18172;SDS011;9211;48.818;9.312;2023-06-10T06:30:21;7.50;;;5.03;;
18172;SDS011;9211;48.818;9.312;2023-06-10T06:32:48;6.60;;;5.18;;
18172;SDS011;9211;48.818;9.312;2023-06-10T06:35:15;6.57;;;4.93;;
18172;SDS011;9211;48.818;9.312;2023-06-10T06:37:41;5.97;;;5.05;;
18172;SDS011;9211;48.818;9.312;2023-06-10T06:40:23;7.78;;;5.10;;
18172;SDS011;9211;48.818;9.312;2023-06-10T06:42:51;6.40;;;5.28;;
18172;SDS011;9211;48.818;9.312;2023-06-10T06:45:38;6.22;;;4.95;;
18172;SDS011;9211;48.818;9.312;2023-06-10T06:48:05;6.35;;;4.88;;
18172;SDS011;9211;48.818;9.312;2023-06-10T06:50:32;6.18;;;4.97;;
18172;SDS011;9211;48.818;9.312;2023-06-10T06:52:59;5.82;;;4.60;;
18172;SDS011;9211;48.818;9.312;2023-06-10T06:55:26;7.20;;;4.97;;
18172;SDS011;9211;48.818;9.312;2023-06-10T06:57:54;6.03;;;5.20;;
18172;SDS011;9211;48.818;9.312;2023-06-10T07:00:22;5.85;;;4.78;;
18172;SDS011;9211;48.818;9.312;2023-06-10T07:02:48;5.63;;;4.70;;
18172;SDS011;9211;48.818;9.312;2023-06-10T07:05:15;5.97;;;4.30;;
18172;SDS011;9211;48.818;9.312;2023-06-10T07:07:43;6.35;;;4.68;;
18172;SDS011;9211;48.818;9.312;2023-06-10T07:10:10;6.53;;;5.15;;
18172;SDS011;9211;48.818;9.312;2023-06-10T07:12:37;5.82;;;4.90;;
18172;SDS011;9211;48.818;9.312;2023-06-10T07:15:06;6.47;;;5.10;;
18172;SDS011;9211;48.818;9.312;2023-06-10T07:17:33;7.00;;;4.82;;
18172;SDS011;9211;48.818;9.312;2023-06-10T07:20:00;6.18;;;5.05;;
18172;SDS011;9211;48.818;9.312;2023-06-10T07:22:27;5.63;;;4.70;;
18172;SDS011;9211;48.818;9.312;2023-06-10T07:24:54;6.40;;;5.00;;
18172;SDS011;9211;48.818;9.312;2023-06-10T07:27:21;6.43;;;4.72;;
18172;SDS011;9211;48.818;9.312;2023-06-10T07:29:48;5.95;;;4.68;;
18172;SDS011;9211;48.818;9.312;2023-06-10T07:32:18;5.93;;;4.38;;
18172;SDS011;9211;48.818;9.312;2023-06-10T07:34:47;5.53;;;4.53;;
18172;SDS011;9211;48.818;9.312;2023-06-10T07:37:14;5.85;;;4.68;;
18172;SDS011;9211;48.818;9.312;2023-06-10T07:39:41;8.32;;;6.40;;
18172;SDS011;9211;48.818;9.312;2023-06-10T07:42:09;10.02;;;7.22;;
18172;SDS011;9211;48.818;9.312;2023-06-10T07:44:36;7.50;;;5.60;;
18172;SDS011;9211;48.818;9.312;2023-06-10T07:47:03;6.73;;;5.13;;
18172;SDS011;9211;48.818;9.312;2023-06-10T07:49:32;6.28;;;4.65;;
18172;SDS011;9211;48.818;9.312;2023-06-10T07:51:58;5.90;;;4.80;;
18172;SDS011;9211;48.818;9.312;2023-06-10T07:54:25;6.18;;;4.97;;
18172;SDS011;9211;48.818;9.312;2023-06-10T07:56:52;6.60;;;4.87;;
18172;SDS011;9211;48.818;9.312;2023-06-10T07:59:19;7.90;;;5.03;;
18172;SDS011;9211;48.818;9.312;2023-06-10T08:01:46;6.25;;;4.90;;
18172;SDS011;9211;48.818;9.312;2023-06-10T08:04:13;7.25;;;4.63;;
18172;SDS011;9211;48.818;9.312;2023-06-10T08:06:42;6.85;;;4.90;;
18172;SDS011;9211;48.818;9.312;2023-06-10T08:09:09;6.32;;;4.88;;
18172;SDS011;9211;48.818;9.312;2023-06-10T08:11:36;9.02;;;5.13;;
18172;SDS011;9211;48.818;9.312;2023-06-10T08:14:03;6.00;;;4.80;;
18172;SDS011;9211;48.818;9.312;2023-06-10T08:16:30;7.03;;;4.80;;
18172;SDS011;9211;48.818;9.312;2023-06-10T08:18:57;6.03;;;4.90;;
18172;SDS011;9211;48.818;9.312;2023-06-10T08:21:23;7.93;;;4.85;;
18172;SDS011;9211;48.818;9.312;2023-06-10T08:23:53;17.48;;;5.75;;
18172;SDS011;9211;48.818;9.312;2023-06-10T08:26:20;8.70;;;5.10;;
18172;SDS011;9211;48.818;9.312;2023-06-10T08:28:47;6.70;;;4.97;;
18172;SDS011;9211;48.818;9.312;2023-06-10T08:31:14;13.77;;;5.70;;
18172;SDS011;9211;48.818;9.312;2023-06-10T08:33:41;30.80;;;20.02;;
18172;SDS011;9211;48.818;9.312;2023-06-10T08:36:08;14.35;;;9.45;;
18172;SDS011;9211;48.818;9.312;2023-06-10T08:38:36;25.00;;;17.10;;
18172;SDS011;9211;48.818;9.312;2023-06-10T08:41:05;19.50;;;14.57;;
18172;SDS011;9211;48.818;9.312;2023-06-10T08:43:33;16.05;;;11.50;;
18172;SDS011;9211;48.818;9.312;2023-06-10T08:46:03;10.60;;;8.05;;
18172;SDS011;9211;48.818;9.312;2023-06-10T08:48:30;9.15;;;6.90;;
18172;SDS011;9211;48.818;9.312;2023-06-10T08:51:01;6.10;;;5.13;;
18172;SDS011;9211;48.818;9.312;2023-06-10T08:53:31;9.82;;;6.47;;
18172;SDS011;9211;48.818;9.312;2023-06-10T08:56:00;7.15;;;5.68;;
18172;SDS011;9211;48.818;9.312;2023-06-10T08:58:31;6.97;;;5.22;;
18172;SDS011;9211;48.818;9.312;2023-06-10T09:01:05;6.43;;;5.10;;
18172;SDS011;9211;48.818;9.312;2023-06-10T09:03:32;7.37;;;5.50;;
18172;SDS011;9211;48.818;9.312;2023-06-10T09:06:02;7.22;;;4.95;;
18172;SDS011;9211;48.818;9.312;2023-06-10T09:08:32;8.10;;;4.82;;
18172;SDS011;9211;48.818;9.312;2023-06-10T09:11:00;7.07;;;5.00;;
18172;SDS011;9211;48.818;9.312;2023-06-10T09:13:27;7.67;;;5.13;;
18172;SDS011;9211;48.818;9.312;2023-06-10T09:15:56;7.43;;;5.10;;
18172;SDS011;9211;48.818;9.312;2023-06-10T09:18:26;6.38;;;4.68;;
18172;SDS011;9211;48.818;9.312;2023-06-10T09:20:53;7.43;;;4.88;;
18172;SDS011;9211;48.818;9.312;2023-06-10T09:23:20;6.60;;;4.95;;
18172;SDS011;9211;48.818;9.312;2023-06-10T09:25:53;7.13;;;4.50;;
18172;SDS011;9211;48.818;9.312;2023-06-10T09:28:23;6.18;;;4.70;;
18172;SDS011;9211;48.818;9.312;2023-06-10T09:30:50;5.20;;;4.40;;
18172;SDS011;9211;48.818;9.312;2023-06-10T09:33:30;4.93;;;4.43;;
18172;SDS011;9211;48.818;9.312;2023-06-10T09:35:57;4.85;;;4.10;;
18172;SDS011;9211;48.818;9.312;2023-06-10T09:38:29;7.47;;;4.40;;
18172;SDS011;9211;48.818;9.312;2023-06-10T09:40:57;5.22;;;4.20;;
18172;SDS011;9211;48.818;9.312;2023-06-10T09:43:24;5.80;;;4.05;;
18172;SDS011;9211;48.818;9.312;2023-06-10T09:46:06;5.53;;;4.18;;
18172;SDS011;9211;48.818;9.312;2023-06-10T09:48:40;5.30;;;4.20;;
18172;SDS011;9211;48.818;9.312;2023-06-10T09:51:08;5.00;;;3.95;;
18172;SDS011;9211;48.818;9.312;2023-06-10T09:53:36;4.75;;;4.10;;
18172;SDS011;9211;48.818;9.312;2023-06-10T09:56:03;4.95;;;3.80;;
18172;SDS011;9211;48.818;9.312;2023-06-10T09:58:34;4.75;;;4.00;;
18172;SDS011;9211;48.818;9.312;2023-06-10T10:01:07;4.05;;;3.38;;
18172;SDS011;9211;48.818;9.312;2023-06-10T10:03:43;6.70;;;4.03;;
18172;SDS011;9211;48.818;9.312;2023-06-10T10:06:11;4.53;;;3.40;;
18172;SDS011;9211;48.818;9.312;2023-06-10T10:08:39;4.40;;;4.00;;
18172;SDS011;9211;48.818;9.312;2023-06-10T10:11:06;4.95;;;3.70;;
18172;SDS011;9211;48.818;9.312;2023-06-10T10:13:33;4.90;;;3.60;;
18172;SDS011;9211;48.818;9.312;2023-06-10T10:16:02;4.20;;;3.40;;
18172;SDS011;9211;48.818;9.312;2023-06-10T10:18:34;4.57;;;3.50;;
18172;SDS011;9211;48.818;9.312;2023-06-10T10:21:03;4.70;;;3.50;;
18172;SDS011;9211;48.818;9.312;2023-06-10T10:23:38;4.20;;;3.33;;
18172;SDS011;9211;48.818;9.312;2023-06-10T10:26:10;5.18;;;3.47;;
18172;SDS011;9211;48.818;9.312;2023-06-10T10:28:41;4.97;;;3.63;;
18172;SDS011;9211;48.818;9.312;2023-06-10T10:31:11;5.03;;;3.60;;
18172;SDS011;9211;48.818;9.312;2023-06-10T10:33:48;5.20;;;3.40;;
18172;SDS011;9211;48.818;9.312;2023-06-10T10:36:21;4.63;;;3.80;;
18172;SDS011;9211;48.818;9.312;2023-06-10T10:38:48;4.57;;;3.30;;
18172;SDS011;9211;48.818;9.312;2023-06-10T10:41:15;4.85;;;3.80;;
18172;SDS011;9211;48.818;9.312;2023-06-10T10:43:44;4.70;;;4.03;;
18172;SDS011;9211;48.818;9.312;2023-06-10T10:46:12;4.93;;;4.00;;
18172;SDS011;9211;48.818;9.312;2023-06-10T10:48:40;7.30;;;4.40;;
18172;SDS011;9211;48.818;9.312;2023-06-10T10:51:09;4.80;;;4.10;;
18172;SDS011;9211;48.818;9.312;2023-06-10T10:53:37;6.67;;;4.60;;
18172;SDS011;9211;48.818;9.312;2023-06-10T10:56:05;4.68;;;3.78;;
18172;SDS011;9211;48.818;9.312;2023-06-10T10:58:33;5.03;;;4.00;;
18172;SDS011;9211;48.818;9.312;2023-06-10T11:01:06;6.07;;;4.70;;
18172;SDS011;9211;48.818;9.312;2023-06-10T11:03:41;7.28;;;5.47;;
18172;SDS011;9211;48.818;9.312;2023-06-10T11:06:13;6.90;;;5.00;;
18172;SDS011;9211;48.818;9.312;2023-06-10T11:08:46;5.22;;;4.25;;
18172;SDS011;9211;48.818;9.312;2023-06-10T11:11:17;5.80;;;3.90;;
18172;SDS011;9211;48.818;9.312;2023-06-10T11:13:57;5.65;;;3.78;;
18172;SDS011;9211;48.818;9.312;2023-06-10T11:16:25;4.22;;;3.60;;
18172;SDS011;9211;48.818;9.312;2023-06-10T11:18:53;5.75;;;4.10;;
18172;SDS011;9211;48.818;9.312;2023-06-10T11:21:24;6.25;;;3.95;;
18172;SDS011;9211;48.818;9.312;2023-06-10T11:23:51;4.53;;;3.47;;
18172;SDS011;9211;48.818;9.312;2023-06-10T11:26:19;6.20;;;3.67;;
18172;SDS011;9211;48.818;9.312;2023-06-10T11:29:09;4.95;;;3.83;;
18172;SDS011;9211;48.818;9.312;2023-06-10T11:31:38;5.85;;;3.95;;
18172;SDS011;9211;48.818;9.312;2023-06-10T11:34:06;4.57;;;3.63;;
18172;SDS011;9211;48.818;9.312;2023-06-10T11:36:36;8.73;;;3.95;;
18172;SDS011;9211;48.818;9.312;2023-06-10T11:39:07;5.50;;;3.65;;
18172;SDS011;9211;48.818;9.312;2023-06-10T11:41:36;5.53;;;3.90;;
18172;SDS011;9211;48.818;9.312;2023-06-10T11:44:07;5.93;;;3.60;;
18172;SDS011;9211;48.818;9.312;2023-06-10T11:46:35;5.32;;;3.60;;
18172;SDS011;9211;48.818;9.312;2023-06-10T11:49:02;5.63;;;3.70;;
18172;SDS011;9211;48.818;9.312;2023-06-10T11:51:32;5.03;;;3.47;;
18172;SDS011;9211;48.818;9.312;2023-06-10T11:54:02;3.87;;;3.40;;
18172;SDS011;9211;48.818;9.312;2023-06-10T11:56:30;5.78;;;4.40;;
18172;SDS011;9211;48.818;9.312;2023-06-10T11:58:58;4.95;;;3.70;;
18172;SDS011;9211;48.818;9.312;2023-06-10T12:01:29;4.20;;;3.65;;
18172;SDS011;9211;48.818;9.312;2023-06-10T12:03:57;7.53;;;4.25;;
18172;SDS011;9211;48.818;9.312;2023-06-10T12:06:27;4.43;;;3.50;;
18172;SDS011;9211;48.818;9.312;2023-06-10T12:09:04;3.95;;;3.38;;
18172;SDS011;9211;48.818;9.312;2023-06-10T12:11:32;5.15;;;3.55;;
18172;SDS011;9211;48.818;9.312;2023-06-10T12:13:59;6.22;;;3.50;;
18172;SDS011;9211;48.818;9.312;2023-06-10T12:16:29;6.50;;;3.60;;
18172;SDS011;9211;48.818;9.312;2023-06-10T12:19:00;4.50;;;3.65;;
18172;SDS011;9211;48.818;9.312;2023-06-10T12:21:28;4.67;;;3.40;;
18172;SDS011;9211;48.818;9.312;2023-06-10T12:24:00;4.15;;;3.40;;
18172;SDS011;9211;48.818;9.312;2023-06-10T12:26:34;4.72;;;3.30;;
18172;SDS011;9211;48.818;9.312;2023-06-10T12:29:02;3.40;;;3.10;;
18172;SDS011;9211;48.818;9.312;2023-06-10T12:31:51;13.07;;;9.70;;
18172;SDS011;9211;48.818;9.312;2023-06-10T12:34:33;15.30;;;10.75;;
18172;SDS011;9211;48.818;9.312;2023-06-10T12:37:02;6.90;;;5.07;;
18172;SDS011;9211;48.818;9.312;2023-06-10T12:39:32;3.92;;;3.25;;
18172;SDS011;9211;48.818;9.312;2023-06-10T12:42:00;4.18;;;3.60;;
18172;SDS011;9211;48.818;9.312;2023-06-10T12:44:34;4.47;;;3.28;;
18172;SDS011;9211;48.818;9.312;2023-06-10T12:47:07;4.07;;;3.40;;
18172;SDS011;9211;48.818;9.312;2023-06-10T12:49:37;5.40;;;3.30;;
18172;SDS011;9211;48.818;9.312;2023-06-10T12:52:04;3.40;;;3.10;;
18172;SDS011;9211;48.818;9.312;2023-06-10T12:54:33;3.73;;;3.10;;
18172;SDS011;9211;48.818;9.312;2023-06-10T12:57:01;4.18;;;3.05;;
18172;SDS011;9211;48.818;9.312;2023-06-10T12:59:28;5.32;;;3.30;;
18172;SDS011;9211;48.818;9.312;2023-06-10T13:01:57;3.37;;;2.90;;
18172;SDS011;9211;48.818;9.312;2023-06-10T13:04:24;4.07;;;3.17;;
18172;SDS011;9211;48.818;9.312;2023-06-10T13:06:52;3.58;;;3.00;;
18172;SDS011;9211;48.818;9.312;2023-06-10T13:09:19;4.00;;;3.05;;
18172;SDS011;9211;48.818;9.312;2023-06-10T13:11:47;5.10;;;3.22;;
18172;SDS011;9211;48.818;9.312;2023-06-10T13:14:14;3.88;;;3.13;;
18172;SDS011;9211;48.818;9.312;2023-06-10T13:16:41;3.90;;;2.95;;
18172;SDS011;9211;48.818;9.312;2023-06-10T13:19:10;6.30;;;3.33;;
18172;SDS011;9211;48.818;9.312;2023-06-10T13:21:36;4.68;;;3.30;;
18172;SDS011;9211;48.818;9.312;2023-06-10T13:24:04;3.58;;;3.28;;
18172;SDS011;9211;48.818;9.312;2023-06-10T13:26:31;5.43;;;3.20;;
18172;SDS011;9211;48.818;9.312;2023-06-10T13:28:59;5.00;;;3.25;;
18172;SDS011;9211;48.818;9.312;2023-06-10T13:31:26;3.88;;;3.05;;
18172;SDS011;9211;48.818;9.312;2023-06-10T13:33:53;3.20;;;2.90;;
18172;SDS011;9211;48.818;9.312;2023-06-10T13:36:20;4.55;;;3.08;;
18172;SDS011;9211;48.818;9.312;2023-06-10T13:38:47;3.50;;;3.00;;
18172;SDS011;9211;48.818;9.312;2023-06-10T13:41:14;3.35;;;2.90;;
18172;SDS011;9211;48.818;9.312;2023-06-10T13:43:41;4.18;;;3.10;;
18172;SDS011;9211;48.818;9.312;2023-06-10T13:46:09;4.07;;;3.30;;
18172;SDS011;9211;48.818;9.312;2023-06-10T13:48:36;4.45;;;3.50;;
18172;SDS011;9211;48.818;9.312;2023-06-10T13:51:03;4.60;;;3.30;;
18172;SDS011;9211;48.818;9.312;2023-06-10T13:53:30;3.80;;;3.30;;
18172;SDS011;9211;48.818;9.312;2023-06-10T13:55:57;4.72;;;3.40;;
18172;SDS011;9211;48.818;9.312;2023-06-10T13:58:24;4.15;;;3.10;;
18172;SDS011;9211;48.818;9.312;2023-06-10T14:00:51;5.65;;;3.70;;
18172;SDS011;9211;48.818;9.312;2023-06-10T14:03:19;4.50;;;3.13;;
18172;SDS011;9211;48.818;9.312;2023-06-10T14:05:46;4.90;;;3.17;;
18172;SDS011;9211;48.818;9.312;2023-06-10T14:08:13;3.72;;;3.05;;
18172;SDS011;9211;48.818;9.312;2023-06-10T14:10:40;4.40;;;3.07;;
18172;SDS011;9211;48.818;9.312;2023-06-10T14:13:07;4.28;;;3.10;;
18172;SDS011;9211;48.818;9.312;2023-06-10T14:15:34;5.75;;;3.20;;
18172;SDS011;9211;48.818;9.312;2023-06-10T14:18:02;4.18;;;3.50;;
18172;SDS011;9211;48.818;9.312;2023-06-10T14:20:31;4.17;;;3.40;;
18172;SDS011;9211;48.818;9.312;2023-06-10T14:22:58;3.88;;;3.45;;
18172;SDS011;9211;48.818;9.312;2023-06-10T14:25:25;4.25;;;3.50;;
18172;SDS011;9211;48.818;9.312;2023-06-10T14:27:52;4.80;;;3.30;;
18172;SDS011;9211;48.818;9.312;2023-06-10T14:30:19;3.30;;;2.80;;
18172;SDS011;9211;48.818;9.312;2023-06-10T14:32:46;3.72;;;3.10;;
18172;SDS011;9211;48.818;9.312;2023-06-10T14:35:13;4.20;;;3.50;;
18172;SDS011;9211;48.818;9.312;2023-06-10T14:37:41;5.80;;;3.80;;
18172;SDS011;9211;48.818;9.312;2023-06-10T14:40:08;3.93;;;3.07;;
18172;SDS011;9211;48.818;9.312;2023-06-10T14:42:36;4.50;;;3.33;;
18172;SDS011;9211;48.818;9.312;2023-06-10T14:45:03;4.28;;;3.50;;
18172;SDS011;9211;48.818;9.312;2023-06-10T14:47:31;4.13;;;3.58;;
18172;SDS011;9211;48.818;9.312;2023-06-10T14:49:58;4.00;;;3.45;;
18172;SDS011;9211;48.818;9.312;2023-06-10T14:52:25;6.03;;;3.30;;
18172;SDS011;9211;48.818;9.312;2023-06-10T14:54:54;3.70;;;3.20;;
18172;SDS011;9211;48.818;9.312;2023-06-10T14:57:20;4.43;;;3.58;;
18172;SDS011;9211;48.818;9.312;2023-06-10T14:59:47;3.88;;;3.35;;
18172;SDS011;9211;48.818;9.312;2023-06-10T15:02:14;3.45;;;3.15;;
18172;SDS011;9211;48.818;9.312;2023-06-10T15:04:41;5.07;;;3.50;;